SGAS/ASU METAR and TAF weather

Enter ICAO airport designator
Station Type Date Time Source
SGAS METAR 2018/05/22 13:30 UTC NOAA

SGAS 221330Z 16007KT 110V190 CAVOK 18/11 Q1022


Station Type Date Time Source
SGAS Decoded METAR 2018/05/22 13:30 UTC NOAA

Asuncion / Aeropuerto, Paraguay (SGAS) 25-16S 057-38W 101M
May 22, 2018 - 09:30 AM EDT / 2018.05.22 1330 UTC
Wind: from the SSE (160 degrees) at 8 MPH (7 KT) (direction variable):0
Visibility: greater than 7 mile(s):0
Temperature: 64 F (18 C)
Dew Point: 51 F (11 C)
Relative Humidity: 63%
Pressure (altimeter): 30.18 in. Hg (1022 hPa)
ob: SGAS 221330Z 16007KT 110V190 CAVOK 18/11 Q1022
cycle: 13

Station Type Date Time Source
SGAS TAF 2018/05/22 12:51 UTC NOAA

TAF TAF SGAS 221050Z 2212/2312 20005KT CAVOK TX21/2219Z TN10/2309Z
BECMG 2217/2220 9999 SCT030
BECMG 2221/2300 VRB03KT CAVOK PROB30 2304/2306 7000 NSC


Example: see airport list